sensor_id;sensor_type;location;lat;lon;timestamp;P1;durP1;ratioP1;P2;durP2;ratioP2
30543;SDS011;43388;46.308;4.600;2022-07-29T00:01:47;3.58;;;1.80;;
30543;SDS011;43388;46.308;4.600;2022-07-29T00:04:13;2.65;;;1.70;;
30543;SDS011;43388;46.308;4.600;2022-07-29T00:06:39;1.83;;;1.63;;
30543;SDS011;43388;46.308;4.600;2022-07-29T00:09:06;3.90;;;1.48;;
30543;SDS011;43388;46.308;4.600;2022-07-29T00:11:32;4.35;;;1.85;;
30543;SDS011;43388;46.308;4.600;2022-07-29T00:13:58;2.22;;;1.70;;
30543;SDS011;43388;46.308;4.600;2022-07-29T00:16:24;2.67;;;1.92;;
30543;SDS011;43388;46.308;4.600;2022-07-29T00:18:50;3.63;;;1.90;;
30543;SDS011;43388;46.308;4.600;2022-07-29T00:21:16;5.18;;;2.00;;
30543;SDS011;43388;46.308;4.600;2022-07-29T00:23:42;2.42;;;2.20;;
30543;SDS011;43388;46.308;4.600;2022-07-29T00:26:08;4.63;;;2.00;;
30543;SDS011;43388;46.308;4.600;2022-07-29T00:28:34;8.88;;;2.28;;
30543;SDS011;43388;46.308;4.600;2022-07-29T00:31:00;4.30;;;1.92;;
30543;SDS011;43388;46.308;4.600;2022-07-29T00:33:26;10.02;;;2.40;;
30543;SDS011;43388;46.308;4.600;2022-07-29T00:35:52;4.38;;;2.58;;
30543;SDS011;43388;46.308;4.600;2022-07-29T00:38:19;6.30;;;2.65;;
30543;SDS011;43388;46.308;4.600;2022-07-29T00:40:45;2.58;;;1.85;;
30543;SDS011;43388;46.308;4.600;2022-07-29T00:43:12;2.45;;;1.90;;
30543;SDS011;43388;46.308;4.600;2022-07-29T00:45:38;2.53;;;1.70;;
30543;SDS011;43388;46.308;4.600;2022-07-29T00:48:05;2.80;;;1.90;;
30543;SDS011;43388;46.308;4.600;2022-07-29T00:50:31;4.07;;;1.90;;
30543;SDS011;43388;46.308;4.600;2022-07-29T00:52:58;3.25;;;1.80;;
30543;SDS011;43388;46.308;4.600;2022-07-29T00:55:24;5.28;;;1.92;;
30543;SDS011;43388;46.308;4.600;2022-07-29T00:57:50;2.05;;;1.85;;
30543;SDS011;43388;46.308;4.600;2022-07-29T01:00:19;5.32;;;2.15;;
30543;SDS011;43388;46.308;4.600;2022-07-29T01:02:45;4.63;;;1.92;;
30543;SDS011;43388;46.308;4.600;2022-07-29T01:05:16;5.45;;;1.88;;
30543;SDS011;43388;46.308;4.600;2022-07-29T01:07:43;5.03;;;1.90;;
30543;SDS011;43388;46.308;4.600;2022-07-29T01:10:10;3.05;;;1.80;;
30543;SDS011;43388;46.308;4.600;2022-07-29T01:12:38;5.18;;;2.63;;
30543;SDS011;43388;46.308;4.600;2022-07-29T01:15:05;11.98;;;4.90;;
30543;SDS011;43388;46.308;4.600;2022-07-29T01:17:43;7.75;;;3.83;;
30543;SDS011;43388;46.308;4.600;2022-07-29T01:20:18;3.17;;;2.58;;
30543;SDS011;43388;46.308;4.600;2022-07-29T01:22:52;4.60;;;1.85;;
30543;SDS011;43388;46.308;4.600;2022-07-29T01:30:36;6.50;;;3.17;;
30543;SDS011;43388;46.308;4.600;2022-07-29T01:33:06;7.32;;;2.95;;
30543;SDS011;43388;46.308;4.600;2022-07-29T01:35:36;4.78;;;2.22;;
30543;SDS011;43388;46.308;4.600;2022-07-29T01:43:03;7.03;;;3.63;;
30543;SDS011;43388;46.308;4.600;2022-07-29T01:50:28;2.97;;;1.85;;
30543;SDS011;43388;46.308;4.600;2022-07-29T01:52:56;3.08;;;1.70;;
30543;SDS011;43388;46.308;4.600;2022-07-29T01:55:28;8.35;;;1.92;;
30543;SDS011;43388;46.308;4.600;2022-07-29T01:57:55;4.03;;;2.22;;
30543;SDS011;43388;46.308;4.600;2022-07-29T02:00:22;4.10;;;1.85;;
30543;SDS011;43388;46.308;4.600;2022-07-29T02:02:48;4.28;;;2.45;;
30543;SDS011;43388;46.308;4.600;2022-07-29T02:05:17;3.15;;;1.88;;
30543;SDS011;43388;46.308;4.600;2022-07-29T02:07:44;3.40;;;2.28;;
30543;SDS011;43388;46.308;4.600;2022-07-29T02:10:10;5.38;;;1.88;;
30543;SDS011;43388;46.308;4.600;2022-07-29T02:12:38;7.18;;;1.92;;
30543;SDS011;43388;46.308;4.600;2022-07-29T02:15:05;4.03;;;1.92;;
30543;SDS011;43388;46.308;4.600;2022-07-29T02:17:41;5.72;;;1.80;;
30543;SDS011;43388;46.308;4.600;2022-07-29T02:20:08;3.78;;;1.65;;
30543;SDS011;43388;46.308;4.600;2022-07-29T02:22:35;3.58;;;2.15;;
30543;SDS011;43388;46.308;4.600;2022-07-29T02:25:02;2.97;;;1.60;;
30543;SDS011;43388;46.308;4.600;2022-07-29T02:27:29;2.80;;;1.90;;
30543;SDS011;43388;46.308;4.600;2022-07-29T02:29:55;3.60;;;1.77;;
30543;SDS011;43388;46.308;4.600;2022-07-29T02:32:23;6.20;;;2.00;;
30543;SDS011;43388;46.308;4.600;2022-07-29T02:34:50;5.30;;;2.22;;
30543;SDS011;43388;46.308;4.600;2022-07-29T02:37:16;4.53;;;2.67;;
30543;SDS011;43388;46.308;4.600;2022-07-29T02:39:43;5.78;;;3.53;;
30543;SDS011;43388;46.308;4.600;2022-07-29T02:42:11;9.23;;;4.85;;
30543;SDS011;43388;46.308;4.600;2022-07-29T02:44:38;10.35;;;4.38;;
30543;SDS011;43388;46.308;4.600;2022-07-29T02:49:52;12.57;;;5.80;;
30543;SDS011;43388;46.308;4.600;2022-07-29T02:52:24;9.38;;;4.75;;
30543;SDS011;43388;46.308;4.600;2022-07-29T02:55:00;6.53;;;3.78;;
30543;SDS011;43388;46.308;4.600;2022-07-29T02:59:53;5.47;;;2.58;;
30543;SDS011;43388;46.308;4.600;2022-07-29T03:02:20;4.85;;;2.83;;
30543;SDS011;43388;46.308;4.600;2022-07-29T03:04:47;5.05;;;2.72;;
30543;SDS011;43388;46.308;4.600;2022-07-29T03:07:14;3.88;;;2.10;;
30543;SDS011;43388;46.308;4.600;2022-07-29T03:09:41;2.15;;;1.80;;
30543;SDS011;43388;46.308;4.600;2022-07-29T03:12:08;3.33;;;1.67;;
30543;SDS011;43388;46.308;4.600;2022-07-29T03:14:34;3.47;;;2.03;;
30543;SDS011;43388;46.308;4.600;2022-07-29T03:17:01;7.07;;;2.28;;
30543;SDS011;43388;46.308;4.600;2022-07-29T03:19:28;4.70;;;2.00;;
30543;SDS011;43388;46.308;4.600;2022-07-29T03:21:58;6.95;;;2.50;;
30543;SDS011;43388;46.308;4.600;2022-07-29T03:24:28;7.80;;;2.88;;
30543;SDS011;43388;46.308;4.600;2022-07-29T03:26:55;5.03;;;2.33;;
30543;SDS011;43388;46.308;4.600;2022-07-29T03:29:21;6.68;;;2.92;;
30543;SDS011;43388;46.308;4.600;2022-07-29T03:31:47;4.00;;;2.45;;
30543;SDS011;43388;46.308;4.600;2022-07-29T03:34:13;6.60;;;2.20;;
30543;SDS011;43388;46.308;4.600;2022-07-29T03:36:39;6.18;;;2.50;;
30543;SDS011;43388;46.308;4.600;2022-07-29T03:39:05;5.22;;;2.97;;
30543;SDS011;43388;46.308;4.600;2022-07-29T03:41:32;2.60;;;1.98;;
30543;SDS011;43388;46.308;4.600;2022-07-29T03:43:59;3.60;;;2.10;;
30543;SDS011;43388;46.308;4.600;2022-07-29T03:46:25;3.72;;;2.40;;
30543;SDS011;43388;46.308;4.600;2022-07-29T03:48:52;5.95;;;2.22;;
30543;SDS011;43388;46.308;4.600;2022-07-29T03:51:21;9.57;;;2.67;;
30543;SDS011;43388;46.308;4.600;2022-07-29T03:53:47;5.57;;;2.55;;
30543;SDS011;43388;46.308;4.600;2022-07-29T03:56:15;3.75;;;2.42;;
30543;SDS011;43388;46.308;4.600;2022-07-29T03:58:41;5.22;;;2.08;;
30543;SDS011;43388;46.308;4.600;2022-07-29T04:01:07;3.28;;;2.40;;
30543;SDS011;43388;46.308;4.600;2022-07-29T04:03:34;2.78;;;1.92;;
30543;SDS011;43388;46.308;4.600;2022-07-29T04:06:04;2.00;;;1.80;;
30543;SDS011;43388;46.308;4.600;2022-07-29T04:08:33;6.03;;;2.63;;
30543;SDS011;43388;46.308;4.600;2022-07-29T04:11:00;5.93;;;2.20;;
30543;SDS011;43388;46.308;4.600;2022-07-29T04:13:27;11.35;;;2.40;;
30543;SDS011;43388;46.308;4.600;2022-07-29T04:15:53;7.88;;;2.65;;
30543;SDS011;43388;46.308;4.600;2022-07-29T04:18:19;11.88;;;2.75;;
30543;SDS011;43388;46.308;4.600;2022-07-29T04:20:45;2.78;;;2.00;;
30543;SDS011;43388;46.308;4.600;2022-07-29T04:23:11;8.57;;;2.33;;
30543;SDS011;43388;46.308;4.600;2022-07-29T04:25:38;3.13;;;2.35;;
30543;SDS011;43388;46.308;4.600;2022-07-29T04:28:04;6.50;;;1.90;;
30543;SDS011;43388;46.308;4.600;2022-07-29T04:30:31;2.50;;;2.30;;
30543;SDS011;43388;46.308;4.600;2022-07-29T04:32:58;2.63;;;2.13;;
30543;SDS011;43388;46.308;4.600;2022-07-29T04:35:25;2.13;;;1.98;;
30543;SDS011;43388;46.308;4.600;2022-07-29T04:37:52;5.90;;;2.20;;
30543;SDS011;43388;46.308;4.600;2022-07-29T04:40:18;6.75;;;2.20;;
30543;SDS011;43388;46.308;4.600;2022-07-29T04:42:44;9.10;;;2.40;;
30543;SDS011;43388;46.308;4.600;2022-07-29T04:45:10;3.90;;;2.10;;
30543;SDS011;43388;46.308;4.600;2022-07-29T04:47:36;3.78;;;2.10;;
30543;SDS011;43388;46.308;4.600;2022-07-29T04:50:02;5.75;;;2.13;;
30543;SDS011;43388;46.308;4.600;2022-07-29T04:52:30;6.93;;;2.10;;
30543;SDS011;43388;46.308;4.600;2022-07-29T04:54:56;5.97;;;2.30;;
30543;SDS011;43388;46.308;4.600;2022-07-29T04:57:22;5.85;;;2.25;;
30543;SDS011;43388;46.308;4.600;2022-07-29T04:59:48;8.00;;;2.25;;
30543;SDS011;43388;46.308;4.600;2022-07-29T05:02:14;4.22;;;2.10;;
30543;SDS011;43388;46.308;4.600;2022-07-29T05:04:40;3.50;;;2.03;;
30543;SDS011;43388;46.308;4.600;2022-07-29T05:07:06;5.78;;;2.30;;
30543;SDS011;43388;46.308;4.600;2022-07-29T05:09:32;11.18;;;2.63;;
30543;SDS011;43388;46.308;4.600;2022-07-29T05:11:58;6.72;;;2.35;;
30543;SDS011;43388;46.308;4.600;2022-07-29T05:14:24;5.88;;;2.03;;
30543;SDS011;43388;46.308;4.600;2022-07-29T05:16:50;2.22;;;1.90;;
30543;SDS011;43388;46.308;4.600;2022-07-29T05:19:17;8.63;;;2.30;;
30543;SDS011;43388;46.308;4.600;2022-07-29T05:21:44;7.95;;;2.22;;
30543;SDS011;43388;46.308;4.600;2022-07-29T05:24:10;3.47;;;2.03;;
30543;SDS011;43388;46.308;4.600;2022-07-29T05:26:36;3.38;;;2.13;;
30543;SDS011;43388;46.308;4.600;2022-07-29T05:29:02;3.60;;;2.00;;
30543;SDS011;43388;46.308;4.600;2022-07-29T05:31:28;4.22;;;2.35;;
30543;SDS011;43388;46.308;4.600;2022-07-29T05:33:54;2.72;;;2.05;;
30543;SDS011;43388;46.308;4.600;2022-07-29T05:36:20;3.42;;;2.00;;
30543;SDS011;43388;46.308;4.600;2022-07-29T05:38:46;3.20;;;2.70;;
30543;SDS011;43388;46.308;4.600;2022-07-29T05:41:12;7.32;;;2.78;;
30543;SDS011;43388;46.308;4.600;2022-07-29T05:43:38;3.67;;;2.40;;
30543;SDS011;43388;46.308;4.600;2022-07-29T05:46:04;2.30;;;2.10;;
30543;SDS011;43388;46.308;4.600;2022-07-29T05:48:30;5.97;;;2.53;;
30543;SDS011;43388;46.308;4.600;2022-07-29T05:50:57;4.43;;;2.30;;
30543;SDS011;43388;46.308;4.600;2022-07-29T05:53:23;5.13;;;1.85;;
30543;SDS011;43388;46.308;4.600;2022-07-29T05:55:49;5.57;;;2.40;;
30543;SDS011;43388;46.308;4.600;2022-07-29T05:58:15;4.60;;;2.25;;
30543;SDS011;43388;46.308;4.600;2022-07-29T06:00:41;2.17;;;1.60;;
30543;SDS011;43388;46.308;4.600;2022-07-29T06:03:07;6.03;;;2.33;;
30543;SDS011;43388;46.308;4.600;2022-07-29T06:05:33;3.42;;;1.98;;
30543;SDS011;43388;46.308;4.600;2022-07-29T06:07:59;5.15;;;2.30;;
30543;SDS011;43388;46.308;4.600;2022-07-29T06:10:25;10.98;;;2.88;;
30543;SDS011;43388;46.308;4.600;2022-07-29T06:12:52;12.05;;;2.67;;
30543;SDS011;43388;46.308;4.600;2022-07-29T06:15:18;12.05;;;2.70;;
30543;SDS011;43388;46.308;4.600;2022-07-29T06:17:44;8.30;;;2.78;;
30543;SDS011;43388;46.308;4.600;2022-07-29T06:20:10;4.45;;;2.53;;
30543;SDS011;43388;46.308;4.600;2022-07-29T06:22:36;5.78;;;2.22;;
30543;SDS011;43388;46.308;4.600;2022-07-29T06:25:02;5.28;;;2.28;;
30543;SDS011;43388;46.308;4.600;2022-07-29T06:27:28;4.63;;;2.35;;
30543;SDS011;43388;46.308;4.600;2022-07-29T06:29:55;13.48;;;2.40;;
30543;SDS011;43388;46.308;4.600;2022-07-29T06:32:21;6.20;;;2.10;;
30543;SDS011;43388;46.308;4.600;2022-07-29T06:34:47;6.50;;;1.98;;
30543;SDS011;43388;46.308;4.600;2022-07-29T06:37:14;8.48;;;2.33;;
30543;SDS011;43388;46.308;4.600;2022-07-29T06:39:40;8.65;;;2.35;;
30543;SDS011;43388;46.308;4.600;2022-07-29T06:42:06;9.25;;;4.78;;
30543;SDS011;43388;46.308;4.600;2022-07-29T06:44:32;9.80;;;3.10;;
30543;SDS011;43388;46.308;4.600;2022-07-29T06:46:59;6.88;;;2.72;;
30543;SDS011;43388;46.308;4.600;2022-07-29T06:49:25;5.55;;;2.47;;
30543;SDS011;43388;46.308;4.600;2022-07-29T06:51:52;6.32;;;2.95;;
30543;SDS011;43388;46.308;4.600;2022-07-29T06:54:19;7.07;;;3.28;;
30543;SDS011;43388;46.308;4.600;2022-07-29T06:56:45;6.70;;;3.20;;
30543;SDS011;43388;46.308;4.600;2022-07-29T06:59:11;4.90;;;2.10;;
30543;SDS011;43388;46.308;4.600;2022-07-29T07:01:40;5.65;;;2.28;;
30543;SDS011;43388;46.308;4.600;2022-07-29T07:04:07;7.03;;;2.08;;
30543;SDS011;43388;46.308;4.600;2022-07-29T07:06:33;5.47;;;2.10;;
30543;SDS011;43388;46.308;4.600;2022-07-29T07:09:00;3.08;;;2.10;;
30543;SDS011;43388;46.308;4.600;2022-07-29T07:11:26;3.63;;;2.72;;
30543;SDS011;43388;46.308;4.600;2022-07-29T07:13:52;5.85;;;2.47;;
30543;SDS011;43388;46.308;4.600;2022-07-29T07:16:18;5.05;;;2.72;;
30543;SDS011;43388;46.308;4.600;2022-07-29T07:18:44;10.35;;;2.60;;
30543;SDS011;43388;46.308;4.600;2022-07-29T07:21:10;6.25;;;2.40;;
30543;SDS011;43388;46.308;4.600;2022-07-29T07:23:36;14.68;;;2.80;;
30543;SDS011;43388;46.308;4.600;2022-07-29T07:26:03;7.38;;;2.67;;
30543;SDS011;43388;46.308;4.600;2022-07-29T07:28:30;6.57;;;2.47;;
30543;SDS011;43388;46.308;4.600;2022-07-29T07:30:57;9.73;;;2.40;;
30543;SDS011;43388;46.308;4.600;2022-07-29T07:33:23;7.50;;;2.03;;
30543;SDS011;43388;46.308;4.600;2022-07-29T07:35:49;6.13;;;2.53;;
30543;SDS011;43388;46.308;4.600;2022-07-29T07:38:15;6.78;;;2.40;;
30543;SDS011;43388;46.308;4.600;2022-07-29T07:40:41;9.98;;;2.30;;
30543;SDS011;43388;46.308;4.600;2022-07-29T07:43:08;9.48;;;2.20;;
30543;SDS011;43388;46.308;4.600;2022-07-29T07:45:34;4.47;;;2.13;;
30543;SDS011;43388;46.308;4.600;2022-07-29T07:48:02;6.47;;;1.83;;
30543;SDS011;43388;46.308;4.600;2022-07-29T07:50:28;4.05;;;1.88;;
30543;SDS011;43388;46.308;4.600;2022-07-29T07:52:55;6.03;;;2.05;;
30543;SDS011;43388;46.308;4.600;2022-07-29T07:55:26;8.88;;;1.70;;
30543;SDS011;43388;46.308;4.600;2022-07-29T07:57:53;11.02;;;2.60;;
30543;SDS011;43388;46.308;4.600;2022-07-29T08:00:19;7.68;;;2.20;;
30543;SDS011;43388;46.308;4.600;2022-07-29T08:02:45;8.77;;;2.22;;
30543;SDS011;43388;46.308;4.600;2022-07-29T08:05:11;6.18;;;2.53;;
30543;SDS011;43388;46.308;4.600;2022-07-29T08:07:41;5.53;;;2.10;;
30543;SDS011;43388;46.308;4.600;2022-07-29T08:10:07;5.82;;;2.35;;
30543;SDS011;43388;46.308;4.600;2022-07-29T08:12:34;5.35;;;2.17;;
30543;SDS011;43388;46.308;4.600;2022-07-29T08:15:00;8.27;;;1.77;;
30543;SDS011;43388;46.308;4.600;2022-07-29T08:17:26;6.68;;;2.10;;
30543;SDS011;43388;46.308;4.600;2022-07-29T08:19:52;7.40;;;2.03;;
30543;SDS011;43388;46.308;4.600;2022-07-29T08:22:19;3.97;;;1.60;;
30543;SDS011;43388;46.308;4.600;2022-07-29T08:24:45;6.55;;;2.15;;
30543;SDS011;43388;46.308;4.600;2022-07-29T08:27:17;9.50;;;2.20;;
30543;SDS011;43388;46.308;4.600;2022-07-29T08:29:44;5.53;;;2.05;;
30543;SDS011;43388;46.308;4.600;2022-07-29T08:32:10;3.40;;;1.92;;
30543;SDS011;43388;46.308;4.600;2022-07-29T08:34:36;7.07;;;1.88;;
30543;SDS011;43388;46.308;4.600;2022-07-29T08:37:02;4.35;;;2.20;;
30543;SDS011;43388;46.308;4.600;2022-07-29T08:39:28;4.78;;;1.83;;
30543;SDS011;43388;46.308;4.600;2022-07-29T08:41:54;6.22;;;2.15;;
30543;SDS011;43388;46.308;4.600;2022-07-29T08:44:21;7.55;;;1.95;;
30543;SDS011;43388;46.308;4.600;2022-07-29T08:46:47;6.82;;;2.05;;
30543;SDS011;43388;46.308;4.600;2022-07-29T08:49:14;7.45;;;1.70;;
30543;SDS011;43388;46.308;4.600;2022-07-29T08:51:40;6.45;;;2.20;;
30543;SDS011;43388;46.308;4.600;2022-07-29T08:54:08;10.27;;;2.17;;
30543;SDS011;43388;46.308;4.600;2022-07-29T08:56:34;8.82;;;2.00;;
30543;SDS011;43388;46.308;4.600;2022-07-29T08:59:02;6.78;;;2.33;;
30543;SDS011;43388;46.308;4.600;2022-07-29T09:01:30;3.10;;;2.03;;
30543;SDS011;43388;46.308;4.600;2022-07-29T09:03:57;5.30;;;2.05;;
30543;SDS011;43388;46.308;4.600;2022-07-29T09:06:26;6.90;;;2.33;;
30543;SDS011;43388;46.308;4.600;2022-07-29T09:08:57;5.85;;;2.08;;
30543;SDS011;43388;46.308;4.600;2022-07-29T09:11:24;5.57;;;2.00;;
30543;SDS011;43388;46.308;4.600;2022-07-29T09:13:50;12.68;;;2.33;;
30543;SDS011;43388;46.308;4.600;2022-07-29T09:16:16;5.70;;;1.80;;
30543;SDS011;43388;46.308;4.600;2022-07-29T09:18:43;6.82;;;1.88;;
30543;SDS011;43388;46.308;4.600;2022-07-29T09:21:10;6.90;;;2.00;;
30543;SDS011;43388;46.308;4.600;2022-07-29T09:24:11;5.55;;;1.80;;
30543;SDS011;43388;46.308;4.600;2022-07-29T09:26:41;6.97;;;2.10;;
30543;SDS011;43388;46.308;4.600;2022-07-29T09:29:11;5.43;;;2.15;;
30543;SDS011;43388;46.308;4.600;2022-07-29T09:31:39;10.70;;;2.30;;
30543;SDS011;43388;46.308;4.600;2022-07-29T09:34:05;7.03;;;1.90;;
30543;SDS011;43388;46.308;4.600;2022-07-29T09:36:38;3.95;;;2.15;;
30543;SDS011;43388;46.308;4.600;2022-07-29T09:39:04;3.53;;;1.92;;
30543;SDS011;43388;46.308;4.600;2022-07-29T09:41:30;5.90;;;2.13;;
30543;SDS011;43388;46.308;4.600;2022-07-29T09:44:09;5.18;;;2.00;;
30543;SDS011;43388;46.308;4.600;2022-07-29T09:46:35;6.25;;;2.08;;
30543;SDS011;43388;46.308;4.600;2022-07-29T09:49:11;12.90;;;2.03;;
30543;SDS011;43388;46.308;4.600;2022-07-29T09:51:39;10.02;;;2.35;;
30543;SDS011;43388;46.308;4.600;2022-07-29T09:54:22;5.53;;;2.22;;
30543;SDS011;43388;46.308;4.600;2022-07-29T09:56:48;9.75;;;2.22;;
30543;SDS011;43388;46.308;4.600;2022-07-29T09:59:14;3.25;;;2.17;;
30543;SDS011;43388;46.308;4.600;2022-07-29T10:01:41;4.53;;;2.08;;
30543;SDS011;43388;46.308;4.600;2022-07-29T10:04:07;9.25;;;2.13;;
30543;SDS011;43388;46.308;4.600;2022-07-29T10:06:33;3.45;;;1.63;;
30543;SDS011;43388;46.308;4.600;2022-07-29T10:09:09;6.63;;;1.92;;
30543;SDS011;43388;46.308;4.600;2022-07-29T10:11:35;7.20;;;2.40;;
30543;SDS011;43388;46.308;4.600;2022-07-29T10:14:02;5.90;;;2.10;;
30543;SDS011;43388;46.308;4.600;2022-07-29T10:16:28;2.38;;;1.70;;
30543;SDS011;43388;46.308;4.600;2022-07-29T10:18:58;10.82;;;2.05;;
30543;SDS011;43388;46.308;4.600;2022-07-29T10:21:27;7.57;;;2.30;;
30543;SDS011;43388;46.308;4.600;2022-07-29T10:23:53;4.28;;;2.00;;
30543;SDS011;43388;46.308;4.600;2022-07-29T10:26:19;6.75;;;1.80;;
30543;SDS011;43388;46.308;4.600;2022-07-29T10:28:46;7.90;;;2.17;;
30543;SDS011;43388;46.308;4.600;2022-07-29T10:31:15;4.50;;;2.13;;
30543;SDS011;43388;46.308;4.600;2022-07-29T10:33:49;6.53;;;2.08;;
30543;SDS011;43388;46.308;4.600;2022-07-29T10:39:12;5.75;;;2.40;;
30543;SDS011;43388;46.308;4.600;2022-07-29T10:44:25;2.90;;;1.50;;
30543;SDS011;43388;46.308;4.600;2022-07-29T10:46:52;13.50;;;2.03;;
30543;SDS011;43388;46.308;4.600;2022-07-29T10:49:19;7.82;;;2.10;;
30543;SDS011;43388;46.308;4.600;2022-07-29T10:51:53;5.30;;;1.73;;
30543;SDS011;43388;46.308;4.600;2022-07-29T10:59:50;4.88;;;2.10;;
30543;SDS011;43388;46.308;4.600;2022-07-29T11:07:25;3.22;;;1.73;;
30543;SDS011;43388;46.308;4.600;2022-07-29T11:15:02;6.93;;;1.70;;
30543;SDS011;43388;46.308;4.600;2022-07-29T11:18:02;7.15;;;2.25;;
30543;SDS011;43388;46.308;4.600;2022-07-29T11:28:33;5.88;;;1.90;;
30543;SDS011;43388;46.308;4.600;2022-07-29T11:31:00;7.15;;;1.70;;
30543;SDS011;43388;46.308;4.600;2022-07-29T11:33:30;3.85;;;1.92;;
30543;SDS011;43388;46.308;4.600;2022-07-29T11:36:09;5.18;;;1.75;;
30543;SDS011;43388;46.308;4.600;2022-07-29T11:38:35;4.55;;;1.40;;
30543;SDS011;43388;46.308;4.600;2022-07-29T11:41:18;3.88;;;1.98;;
30543;SDS011;43388;46.308;4.600;2022-07-29T11:43:54;4.10;;;1.80;;
30543;SDS011;43388;46.308;4.600;2022-07-29T11:49:05;3.80;;;1.65;;
30543;SDS011;43388;46.308;4.600;2022-07-29T11:51:31;2.22;;;1.58;;
30543;SDS011;43388;46.308;4.600;2022-07-29T11:53:58;4.72;;;1.63;;
30543;SDS011;43388;46.308;4.600;2022-07-29T11:56:24;3.50;;;1.77;;
30543;SDS011;43388;46.308;4.600;2022-07-29T11:59:01;4.55;;;1.50;;
30543;SDS011;43388;46.308;4.600;2022-07-29T12:01:28;5.43;;;1.90;;
30543;SDS011;43388;46.308;4.600;2022-07-29T12:04:07;3.83;;;1.80;;
30543;SDS011;43388;46.308;4.600;2022-07-29T12:06:34;3.17;;;1.65;;
30543;SDS011;43388;46.308;4.600;2022-07-29T12:09:00;4.55;;;1.67;;
30543;SDS011;43388;46.308;4.600;2022-07-29T12:11:26;4.07;;;2.10;;
30543;SDS011;43388;46.308;4.600;2022-07-29T12:13:52;5.10;;;1.48;;
30543;SDS011;43388;46.308;4.600;2022-07-29T12:16:19;4.13;;;1.67;;
30543;SDS011;43388;46.308;4.600;2022-07-29T12:19:00;6.35;;;1.80;;
30543;SDS011;43388;46.308;4.600;2022-07-29T12:21:28;2.97;;;1.50;;
30543;SDS011;43388;46.308;4.600;2022-07-29T12:23:54;5.75;;;1.80;;
30543;SDS011;43388;46.308;4.600;2022-07-29T12:26:20;1.85;;;1.50;;
30543;SDS011;43388;46.308;4.600;2022-07-29T12:28:46;4.13;;;1.80;;
30543;SDS011;43388;46.308;4.600;2022-07-29T12:31:13;1.98;;;1.75;;
30543;SDS011;43388;46.308;4.600;2022-07-29T12:33:39;3.38;;;1.88;;
30543;SDS011;43388;46.308;4.600;2022-07-29T12:36:06;4.20;;;1.85;;
30543;SDS011;43388;46.308;4.600;2022-07-29T12:38:33;6.93;;;1.90;;
30543;SDS011;43388;46.308;4.600;2022-07-29T12:40:59;5.35;;;1.90;;
30543;SDS011;43388;46.308;4.600;2022-07-29T12:43:25;5.55;;;1.70;;
30543;SDS011;43388;46.308;4.600;2022-07-29T12:45:53;3.20;;;1.50;;
30543;SDS011;43388;46.308;4.600;2022-07-29T12:48:35;5.50;;;1.60;;
30543;SDS011;43388;46.308;4.600;2022-07-29T12:51:02;4.60;;;1.73;;
30543;SDS011;43388;46.308;4.600;2022-07-29T12:53:29;4.82;;;1.52;;
30543;SDS011;43388;46.308;4.600;2022-07-29T12:55:55;5.72;;;1.60;;
30543;SDS011;43388;46.308;4.600;2022-07-29T12:58:27;4.35;;;1.60;;
30543;SDS011;43388;46.308;4.600;2022-07-29T13:03:26;1.77;;;1.63;;
30543;SDS011;43388;46.308;4.600;2022-07-29T13:05:52;5.90;;;1.58;;
30543;SDS011;43388;46.308;4.600;2022-07-29T13:08:18;3.38;;;1.70;;
30543;SDS011;43388;46.308;4.600;2022-07-29T13:10:45;3.67;;;1.80;;
30543;SDS011;43388;46.308;4.600;2022-07-29T13:13:12;4.70;;;1.70;;
30543;SDS011;43388;46.308;4.600;2022-07-29T13:15:40;7.18;;;2.10;;
30543;SDS011;43388;46.308;4.600;2022-07-29T13:18:25;3.88;;;1.88;;
30543;SDS011;43388;46.308;4.600;2022-07-29T13:20:52;9.02;;;1.88;;
30543;SDS011;43388;46.308;4.600;2022-07-29T13:23:18;3.28;;;1.50;;
30543;SDS011;43388;46.308;4.600;2022-07-29T13:25:44;6.65;;;1.70;;
30543;SDS011;43388;46.308;4.600;2022-07-29T13:28:10;4.40;;;1.85;;
30543;SDS011;43388;46.308;4.600;2022-07-29T13:30:36;3.30;;;1.50;;
30543;SDS011;43388;46.308;4.600;2022-07-29T13:33:03;3.50;;;1.67;;
30543;SDS011;43388;46.308;4.600;2022-07-29T13:35:29;6.57;;;2.08;;
30543;SDS011;43388;46.308;4.600;2022-07-29T13:37:55;4.38;;;1.67;;
30543;SDS011;43388;46.308;4.600;2022-07-29T13:40:21;3.50;;;1.60;;
30543;SDS011;43388;46.308;4.600;2022-07-29T13:42:47;3.80;;;1.88;;
30543;SDS011;43388;46.308;4.600;2022-07-29T13:45:13;6.97;;;2.30;;
30543;SDS011;43388;46.308;4.600;2022-07-29T13:47:39;3.83;;;1.38;;
30543;SDS011;43388;46.308;4.600;2022-07-29T13:50:06;3.35;;;1.70;;
30543;SDS011;43388;46.308;4.600;2022-07-29T13:52:32;2.10;;;1.50;;
30543;SDS011;43388;46.308;4.600;2022-07-29T13:54:59;3.90;;;1.50;;
30543;SDS011;43388;46.308;4.600;2022-07-29T13:57:25;3.65;;;1.80;;
30543;SDS011;43388;46.308;4.600;2022-07-29T13:59:51;6.35;;;1.75;;
30543;SDS011;43388;46.308;4.600;2022-07-29T14:02:17;5.47;;;1.65;;
30543;SDS011;43388;46.308;4.600;2022-07-29T14:04:43;7.22;;;2.53;;
30543;SDS011;43388;46.308;4.600;2022-07-29T14:07:09;5.03;;;1.77;;
30543;SDS011;43388;46.308;4.600;2022-07-29T14:09:35;2.67;;;1.77;;
30543;SDS011;43388;46.308;4.600;2022-07-29T14:12:01;7.38;;;1.77;;
30543;SDS011;43388;46.308;4.600;2022-07-29T14:14:28;2.85;;;1.70;;
30543;SDS011;43388;46.308;4.600;2022-07-29T14:16:54;4.65;;;1.90;;
30543;SDS011;43388;46.308;4.600;2022-07-29T14:19:20;4.63;;;1.73;;
30543;SDS011;43388;46.308;4.600;2022-07-29T14:21:46;7.65;;;1.70;;
30543;SDS011;43388;46.308;4.600;2022-07-29T14:24:12;5.05;;;1.67;;
30543;SDS011;43388;46.308;4.600;2022-07-29T14:26:38;6.03;;;1.83;;
30543;SDS011;43388;46.308;4.600;2022-07-29T14:29:04;6.72;;;2.05;;
30543;SDS011;43388;46.308;4.600;2022-07-29T14:31:30;4.80;;;2.05;;
30543;SDS011;43388;46.308;4.600;2022-07-29T14:33:56;4.00;;;1.50;;
30543;SDS011;43388;46.308;4.600;2022-07-29T14:36:22;3.83;;;1.67;;
30543;SDS011;43388;46.308;4.600;2022-07-29T14:38:48;4.13;;;1.65;;
30543;SDS011;43388;46.308;4.600;2022-07-29T14:41:14;4.68;;;1.85;;
30543;SDS011;43388;46.308;4.600;2022-07-29T14:43:40;5.97;;;1.67;;
30543;SDS011;43388;46.308;4.600;2022-07-29T14:46:06;3.53;;;1.42;;
30543;SDS011;43388;46.308;4.600;2022-07-29T14:48:32;5.68;;;1.55;;
30543;SDS011;43388;46.308;4.600;2022-07-29T14:50:58;6.57;;;1.83;;
30543;SDS011;43388;46.308;4.600;2022-07-29T14:53:24;2.13;;;1.52;;
30543;SDS011;43388;46.308;4.600;2022-07-29T14:55:51;3.30;;;1.90;;
30543;SDS011;43388;46.308;4.600;2022-07-29T14:58:17;2.05;;;1.45;;
30543;SDS011;43388;46.308;4.600;2022-07-29T15:00:44;8.63;;;1.67;;
30543;SDS011;43388;46.308;4.600;2022-07-29T15:03:10;5.55;;;1.40;;
30543;SDS011;43388;46.308;4.600;2022-07-29T15:05:36;2.60;;;1.60;;
30543;SDS011;43388;46.308;4.600;2022-07-29T15:08:02;3.60;;;1.75;;
30543;SDS011;43388;46.308;4.600;2022-07-29T15:10:29;6.75;;;2.15;;
30543;SDS011;43388;46.308;4.600;2022-07-29T15:12:55;6.55;;;1.65;;
30543;SDS011;43388;46.308;4.600;2022-07-29T15:15:21;2.75;;;1.50;;
30543;SDS011;43388;46.308;4.600;2022-07-29T15:17:47;3.00;;;1.33;;
30543;SDS011;43388;46.308;4.600;2022-07-29T15:20:13;2.40;;;1.27;;
30543;SDS011;43388;46.308;4.600;2022-07-29T15:22:39;4.93;;;1.92;;
30543;SDS011;43388;46.308;4.600;2022-07-29T15:25:07;3.95;;;1.50;;
30543;SDS011;43388;46.308;4.600;2022-07-29T15:27:33;4.85;;;1.80;;
30543;SDS011;43388;46.308;4.600;2022-07-29T15:29:59;4.38;;;1.50;;
30543;SDS011;43388;46.308;4.600;2022-07-29T15:32:25;2.30;;;1.42;;
30543;SDS011;43388;46.308;4.600;2022-07-29T15:34:52;7.22;;;1.80;;
30543;SDS011;43388;46.308;4.600;2022-07-29T15:37:18;3.55;;;1.50;;
30543;SDS011;43388;46.308;4.600;2022-07-29T15:39:44;3.30;;;1.50;;
30543;SDS011;43388;46.308;4.600;2022-07-29T15:42:10;3.35;;;1.98;;
30543;SDS011;43388;46.308;4.600;2022-07-29T15:44:36;3.90;;;1.83;;